createdAt,value
2022-11-10T01:48:59.433Z,9.90
2022-11-10T01:49:50.639Z,10.90
2022-11-10T01:50:50.560Z,10.10
2022-11-10T01:51:50.658Z,13.40
2022-11-10T01:52:50.599Z,8.50
2022-11-10T01:53:50.619Z,12.50
2022-11-10T01:54:50.642Z,10.00
2022-11-10T01:55:50.650Z,11.30
2022-11-10T01:56:50.490Z,11.50
2022-11-10T01:57:50.600Z,9.40
2022-11-10T01:58:50.599Z,14.30
2022-11-10T01:59:50.540Z,9.00
2022-11-10T02:00:50.615Z,9.20
2022-11-10T02:01:50.540Z,9.40
2022-11-10T02:02:50.620Z,10.70
2022-11-10T02:03:50.630Z,9.60
2022-11-10T02:04:50.561Z,12.80
2022-11-10T02:05:50.339Z,9.50
2022-11-10T02:06:50.771Z,10.80
2022-11-10T02:07:50.813Z,12.00
2022-11-10T02:08:50.542Z,8.90
2022-11-10T02:09:50.289Z,11.00
2022-11-10T02:10:50.534Z,10.60
2022-11-10T02:11:50.290Z,11.60
2022-11-10T02:12:50.579Z,11.10
2022-11-10T02:13:50.403Z,12.80
2022-11-10T02:14:50.618Z,12.10
2022-11-10T02:15:50.431Z,12.00
2022-11-10T02:16:50.390Z,12.60
2022-11-10T02:17:50.290Z,9.50
2022-11-10T02:18:50.539Z,10.30
2022-11-10T02:19:50.420Z,8.70
2022-11-10T02:20:50.194Z,12.20
2022-11-10T02:21:50.309Z,9.30
2022-11-10T02:22:50.156Z,9.80
2022-11-10T02:23:50.453Z,13.50
2022-11-10T02:24:50.240Z,11.90
2022-11-10T02:25:50.280Z,10.70
2022-11-10T02:26:50.230Z,10.60
2022-11-10T06:36:11.171Z,13.00
2022-11-10T06:37:10.911Z,17.40
2022-11-10T06:38:11.439Z,11.10
2022-11-10T06:39:11.590Z,13.70
2022-11-10T06:40:11.450Z,15.10
2022-11-10T06:41:11.660Z,17.00
2022-11-10T06:42:11.452Z,13.30
2022-11-10T06:43:11.621Z,15.80
2022-11-10T06:44:11.459Z,19.70
2022-11-10T07:27:37.130Z,18.90
2022-11-10T07:28:37.438Z,16.50
2022-11-10T08:50:19.784Z,11.20
2022-11-10T11:11:14.777Z,8.90
2022-11-10T11:11:53.877Z,9.50
2022-11-10T11:12:53.747Z,6.10
2022-11-10T11:13:53.747Z,8.50
2022-11-10T11:14:53.717Z,8.30
2022-11-10T11:15:53.916Z,9.30
2022-11-10T11:16:53.696Z,11.10
2022-11-10T11:17:53.506Z,8.20
2022-11-10T11:18:53.666Z,10.60
2022-11-10T11:19:59.631Z,5.70
2022-11-10T11:20:53.887Z,7.10
2022-11-10T11:21:52.898Z,10.70
2022-11-10T11:22:53.638Z,7.10
2022-11-10T11:23:53.506Z,11.00
2022-11-10T11:24:53.798Z,5.90
2022-11-10T11:25:53.605Z,8.80
2022-11-10T23:38:04.137Z,6.70
2022-11-10T23:38:56.268Z,7.20
2022-11-10T23:39:56.506Z,5.20
2022-11-10T23:40:56.430Z,4.90
2022-11-10T23:41:56.658Z,5.00
2022-11-10T23:42:56.371Z,4.70
2022-11-10T23:43:56.385Z,5.10
2022-11-10T23:44:56.219Z,5.10
2022-11-10T23:46:11.612Z,9.00
2022-11-10T23:46:56.262Z,7.30
2022-11-10T23:47:56.428Z,6.40
2022-11-10T23:48:56.267Z,6.80
2022-11-10T23:49:56.388Z,8.00
2022-11-10T23:50:56.227Z,8.10
2022-11-10T23:51:56.327Z,7.20
2022-11-10T23:52:56.206Z,5.30
2022-11-10T23:53:56.091Z,5.00
2022-11-10T23:54:56.247Z,6.00
2022-11-10T23:55:56.077Z,3.30
2022-11-10T23:56:56.898Z,3.90
2022-11-10T23:57:56.066Z,6.30
2022-11-10T23:58:56.252Z,5.30
2022-11-10T23:59:56.157Z,6.50
